sensor_id;sensor_type;location;lat;lon;timestamp;P1;durP1;ratioP1;P2;durP2;ratioP2
13255;SDS011;37913;48.370;10.930;2023-05-21T00:00:02;108.13;;;49.55;;
13255;SDS011;37913;48.370;10.930;2023-05-21T00:02:34;108.20;;;49.63;;
13255;SDS011;37913;48.370;10.930;2023-05-21T00:05:01;123.32;;;51.38;;
13255;SDS011;37913;48.370;10.930;2023-05-21T00:07:28;107.57;;;48.72;;
13255;SDS011;37913;48.370;10.930;2023-05-21T00:09:57;110.15;;;48.65;;
13255;SDS011;37913;48.370;10.930;2023-05-21T00:12:24;109.45;;;49.60;;
13255;SDS011;37913;48.370;10.930;2023-05-21T00:14:51;115.32;;;49.80;;
13255;SDS011;37913;48.370;10.930;2023-05-21T00:17:19;94.68;;;46.47;;
13255;SDS011;37913;48.370;10.930;2023-05-21T00:19:46;110.88;;;49.10;;
13255;SDS011;37913;48.370;10.930;2023-05-21T00:22:14;100.93;;;47.35;;
13255;SDS011;37913;48.370;10.930;2023-05-21T00:24:41;102.43;;;47.50;;
13255;SDS011;37913;48.370;10.930;2023-05-21T00:27:09;113.60;;;49.83;;
13255;SDS011;37913;48.370;10.930;2023-05-21T00:29:36;106.20;;;48.20;;
13255;SDS011;37913;48.370;10.930;2023-05-21T00:32:03;101.60;;;48.35;;
13255;SDS011;37913;48.370;10.930;2023-05-21T00:34:32;106.93;;;47.90;;
13255;SDS011;37913;48.370;10.930;2023-05-21T00:36:59;109.07;;;49.22;;
13255;SDS011;37913;48.370;10.930;2023-05-21T00:39:27;105.90;;;48.58;;
13255;SDS011;37913;48.370;10.930;2023-05-21T00:41:54;106.47;;;47.28;;
13255;SDS011;37913;48.370;10.930;2023-05-21T00:44:22;110.22;;;49.15;;
13255;SDS011;37913;48.370;10.930;2023-05-21T00:46:49;105.03;;;47.65;;
13255;SDS011;37913;48.370;10.930;2023-05-21T00:49:17;107.50;;;47.60;;
13255;SDS011;37913;48.370;10.930;2023-05-21T00:51:47;104.95;;;47.50;;
13255;SDS011;37913;48.370;10.930;2023-05-21T00:54:15;106.65;;;47.78;;
13255;SDS011;37913;48.370;10.930;2023-05-21T00:56:43;99.90;;;46.47;;
13255;SDS011;37913;48.370;10.930;2023-05-21T00:59:10;106.20;;;47.80;;
13255;SDS011;37913;48.370;10.930;2023-05-21T01:01:37;104.85;;;48.20;;
13255;SDS011;37913;48.370;10.930;2023-05-21T01:04:04;104.13;;;47.38;;
13255;SDS011;37913;48.370;10.930;2023-05-21T01:06:31;113.18;;;48.17;;
13255;SDS011;37913;48.370;10.930;2023-05-21T01:09:01;92.60;;;45.47;;
13255;SDS011;37913;48.370;10.930;2023-05-21T01:11:32;111.45;;;49.10;;
13255;SDS011;37913;48.370;10.930;2023-05-21T01:14:04;107.55;;;47.72;;
13255;SDS011;37913;48.370;10.930;2023-05-21T01:16:34;101.85;;;47.17;;
13255;SDS011;37913;48.370;10.930;2023-05-21T01:19:03;96.82;;;46.10;;
13255;SDS011;37913;48.370;10.930;2023-05-21T01:21:32;91.88;;;45.22;;
13255;SDS011;37913;48.370;10.930;2023-05-21T01:24:03;102.82;;;48.10;;
13255;SDS011;37913;48.370;10.930;2023-05-21T01:26:31;98.28;;;46.95;;
13255;SDS011;37913;48.370;10.930;2023-05-21T01:29:03;103.90;;;47.13;;
13255;SDS011;37913;48.370;10.930;2023-05-21T01:31:33;105.15;;;48.00;;
13255;SDS011;37913;48.370;10.930;2023-05-21T01:34:04;106.68;;;47.80;;
13255;SDS011;37913;48.370;10.930;2023-05-21T01:36:37;100.03;;;47.00;;
13255;SDS011;37913;48.370;10.930;2023-05-21T01:39:11;109.40;;;48.72;;
13255;SDS011;37913;48.370;10.930;2023-05-21T01:41:42;101.22;;;46.72;;
13255;SDS011;37913;48.370;10.930;2023-05-21T01:44:10;92.68;;;45.35;;
13255;SDS011;37913;48.370;10.930;2023-05-21T01:46:38;104.40;;;47.72;;
13255;SDS011;37913;48.370;10.930;2023-05-21T01:49:05;103.88;;;47.70;;
13255;SDS011;37913;48.370;10.930;2023-05-21T01:51:33;93.63;;;45.15;;
13255;SDS011;37913;48.370;10.930;2023-05-21T01:54:01;104.03;;;47.42;;
13255;SDS011;37913;48.370;10.930;2023-05-21T01:56:29;112.72;;;48.88;;
13255;SDS011;37913;48.370;10.930;2023-05-21T01:58:58;100.90;;;47.00;;
13255;SDS011;37913;48.370;10.930;2023-05-21T02:01:25;103.55;;;48.35;;
13255;SDS011;37913;48.370;10.930;2023-05-21T02:03:54;100.07;;;47.13;;
13255;SDS011;37913;48.370;10.930;2023-05-21T02:06:21;100.50;;;47.25;;
13255;SDS011;37913;48.370;10.930;2023-05-21T02:08:48;105.95;;;48.65;;
13255;SDS011;37913;48.370;10.930;2023-05-21T02:11:16;98.32;;;46.88;;
13255;SDS011;37913;48.370;10.930;2023-05-21T02:13:44;104.13;;;48.72;;
13255;SDS011;37913;48.370;10.930;2023-05-21T02:16:11;98.35;;;47.05;;
13255;SDS011;37913;48.370;10.930;2023-05-21T02:18:39;103.38;;;48.13;;
13255;SDS011;37913;48.370;10.930;2023-05-21T02:21:07;106.13;;;48.63;;
13255;SDS011;37913;48.370;10.930;2023-05-21T02:23:35;97.32;;;46.70;;
13255;SDS011;37913;48.370;10.930;2023-05-21T02:26:02;122.40;;;51.60;;
13255;SDS011;37913;48.370;10.930;2023-05-21T02:28:29;113.60;;;49.58;;
13255;SDS011;37913;48.370;10.930;2023-05-21T02:30:58;107.97;;;49.05;;
13255;SDS011;37913;48.370;10.930;2023-05-21T02:33:25;105.35;;;48.88;;
13255;SDS011;37913;48.370;10.930;2023-05-21T02:35:52;100.25;;;48.33;;
13255;SDS011;37913;48.370;10.930;2023-05-21T02:38:19;106.82;;;48.17;;
13255;SDS011;37913;48.370;10.930;2023-05-21T02:40:47;102.15;;;48.05;;
13255;SDS011;37913;48.370;10.930;2023-05-21T02:43:15;102.68;;;47.88;;
13255;SDS011;37913;48.370;10.930;2023-05-21T02:45:42;116.93;;;49.88;;
13255;SDS011;37913;48.370;10.930;2023-05-21T02:48:11;103.75;;;47.10;;
13255;SDS011;37913;48.370;10.930;2023-05-21T02:50:37;106.20;;;48.25;;
13255;SDS011;37913;48.370;10.930;2023-05-21T02:53:04;102.03;;;46.42;;
13255;SDS011;37913;48.370;10.930;2023-05-21T02:55:31;101.22;;;46.05;;
13255;SDS011;37913;48.370;10.930;2023-05-21T02:57:58;91.32;;;44.38;;
13255;SDS011;37913;48.370;10.930;2023-05-21T03:00:25;99.45;;;47.03;;
13255;SDS011;37913;48.370;10.930;2023-05-21T03:02:52;99.15;;;47.05;;
13255;SDS011;37913;48.370;10.930;2023-05-21T03:05:20;98.05;;;46.35;;
13255;SDS011;37913;48.370;10.930;2023-05-21T03:07:48;103.90;;;46.88;;
13255;SDS011;37913;48.370;10.930;2023-05-21T03:10:15;100.35;;;47.05;;
13255;SDS011;37913;48.370;10.930;2023-05-21T03:12:42;103.72;;;47.08;;
13255;SDS011;37913;48.370;10.930;2023-05-21T03:15:10;104.85;;;47.40;;
13255;SDS011;37913;48.370;10.930;2023-05-21T03:17:38;105.47;;;47.85;;
13255;SDS011;37913;48.370;10.930;2023-05-21T03:20:06;102.80;;;47.25;;
13255;SDS011;37913;48.370;10.930;2023-05-21T03:22:41;95.38;;;45.53;;
13255;SDS011;37913;48.370;10.930;2023-05-21T03:25:08;113.00;;;49.10;;
13255;SDS011;37913;48.370;10.930;2023-05-21T03:27:35;99.30;;;45.42;;
13255;SDS011;37913;48.370;10.930;2023-05-21T03:30:03;96.18;;;46.20;;
13255;SDS011;37913;48.370;10.930;2023-05-21T03:32:30;86.30;;;42.90;;
13255;SDS011;37913;48.370;10.930;2023-05-21T03:35:01;103.53;;;46.72;;
13255;SDS011;37913;48.370;10.930;2023-05-21T03:37:28;98.53;;;45.55;;
13255;SDS011;37913;48.370;10.930;2023-05-21T03:39:57;108.88;;;47.90;;
13255;SDS011;37913;48.370;10.930;2023-05-21T03:42:24;90.32;;;43.88;;
13255;SDS011;37913;48.370;10.930;2023-05-21T03:44:51;102.82;;;46.47;;
13255;SDS011;37913;48.370;10.930;2023-05-21T03:47:17;97.47;;;43.10;;
13255;SDS011;37913;48.370;10.930;2023-05-21T03:49:44;104.65;;;46.33;;
13255;SDS011;37913;48.370;10.930;2023-05-21T03:52:11;98.40;;;45.13;;
13255;SDS011;37913;48.370;10.930;2023-05-21T03:54:38;93.97;;;44.38;;
13255;SDS011;37913;48.370;10.930;2023-05-21T03:57:06;98.15;;;45.20;;
13255;SDS011;37913;48.370;10.930;2023-05-21T03:59:33;95.50;;;44.28;;
13255;SDS011;37913;48.370;10.930;2023-05-21T04:02:00;94.57;;;44.38;;
13255;SDS011;37913;48.370;10.930;2023-05-21T04:04:27;94.50;;;44.25;;
13255;SDS011;37913;48.370;10.930;2023-05-21T04:06:54;93.60;;;43.83;;
13255;SDS011;37913;48.370;10.930;2023-05-21T04:09:21;90.05;;;43.10;;
13255;SDS011;37913;48.370;10.930;2023-05-21T04:11:48;91.57;;;43.10;;
13255;SDS011;37913;48.370;10.930;2023-05-21T04:14:16;92.75;;;43.72;;
13255;SDS011;37913;48.370;10.930;2023-05-21T04:16:43;78.78;;;41.00;;
13255;SDS011;37913;48.370;10.930;2023-05-21T04:19:10;95.00;;;44.33;;
13255;SDS011;37913;48.370;10.930;2023-05-21T04:21:37;88.97;;;42.92;;
13255;SDS011;37913;48.370;10.930;2023-05-21T04:24:04;92.60;;;43.45;;
13255;SDS011;37913;48.370;10.930;2023-05-21T04:26:31;101.93;;;45.00;;
13255;SDS011;37913;48.370;10.930;2023-05-21T04:28:59;88.43;;;42.42;;
13255;SDS011;37913;48.370;10.930;2023-05-21T04:31:29;94.28;;;44.10;;
13255;SDS011;37913;48.370;10.930;2023-05-21T04:33:57;91.50;;;42.45;;
13255;SDS011;37913;48.370;10.930;2023-05-21T04:36:24;104.70;;;46.40;;
13255;SDS011;37913;48.370;10.930;2023-05-21T04:38:53;89.63;;;42.45;;
13255;SDS011;37913;48.370;10.930;2023-05-21T04:41:20;87.97;;;42.40;;
13255;SDS011;37913;48.370;10.930;2023-05-21T04:43:46;96.60;;;43.58;;
13255;SDS011;37913;48.370;10.930;2023-05-21T04:46:13;93.07;;;43.15;;
13255;SDS011;37913;48.370;10.930;2023-05-21T04:48:42;97.38;;;43.97;;
13255;SDS011;37913;48.370;10.930;2023-05-21T04:51:09;103.88;;;45.53;;
13255;SDS011;37913;48.370;10.930;2023-05-21T04:53:36;100.32;;;44.72;;
13255;SDS011;37913;48.370;10.930;2023-05-21T04:56:03;98.28;;;45.00;;
13255;SDS011;37913;48.370;10.930;2023-05-21T04:58:31;94.53;;;44.15;;
13255;SDS011;37913;48.370;10.930;2023-05-21T05:00:58;98.05;;;44.58;;
13255;SDS011;37913;48.370;10.930;2023-05-21T05:03:27;97.07;;;43.90;;
13255;SDS011;37913;48.370;10.930;2023-05-21T05:05:56;107.32;;;46.83;;
13255;SDS011;37913;48.370;10.930;2023-05-21T05:08:23;106.93;;;47.50;;
13255;SDS011;37913;48.370;10.930;2023-05-21T05:10:50;104.60;;;46.72;;
13255;SDS011;37913;48.370;10.930;2023-05-21T05:13:17;101.50;;;45.13;;
13255;SDS011;37913;48.370;10.930;2023-05-21T05:15:44;93.57;;;42.97;;
13255;SDS011;37913;48.370;10.930;2023-05-21T05:18:11;93.45;;;44.70;;
13255;SDS011;37913;48.370;10.930;2023-05-21T05:20:38;95.88;;;44.45;;
13255;SDS011;37913;48.370;10.930;2023-05-21T05:23:06;93.57;;;44.08;;
13255;SDS011;37913;48.370;10.930;2023-05-21T05:25:33;87.40;;;42.83;;
13255;SDS011;37913;48.370;10.930;2023-05-21T05:28:00;97.60;;;44.78;;
13255;SDS011;37913;48.370;10.930;2023-05-21T05:30:27;93.72;;;44.63;;
13255;SDS011;37913;48.370;10.930;2023-05-21T05:32:53;100.78;;;45.47;;
13255;SDS011;37913;48.370;10.930;2023-05-21T05:35:20;98.80;;;44.67;;
13255;SDS011;37913;48.370;10.930;2023-05-21T05:37:47;86.93;;;42.53;;
13255;SDS011;37913;48.370;10.930;2023-05-21T05:40:16;95.97;;;44.38;;
13255;SDS011;37913;48.370;10.930;2023-05-21T05:42:43;93.85;;;44.03;;
13255;SDS011;37913;48.370;10.930;2023-05-21T05:45:10;92.05;;;43.50;;
13255;SDS011;37913;48.370;10.930;2023-05-21T05:47:37;93.78;;;44.15;;
13255;SDS011;37913;48.370;10.930;2023-05-21T05:50:04;88.63;;;43.17;;
13255;SDS011;37913;48.370;10.930;2023-05-21T05:52:32;92.03;;;43.92;;
13255;SDS011;37913;48.370;10.930;2023-05-21T05:54:59;96.97;;;44.13;;
13255;SDS011;37913;48.370;10.930;2023-05-21T05:57:27;95.90;;;44.28;;
13255;SDS011;37913;48.370;10.930;2023-05-21T05:59:54;87.72;;;43.45;;
13255;SDS011;37913;48.370;10.930;2023-05-21T06:02:21;95.22;;;44.45;;
13255;SDS011;37913;48.370;10.930;2023-05-21T06:04:48;104.55;;;45.92;;
13255;SDS011;37913;48.370;10.930;2023-05-21T06:07:15;97.55;;;45.70;;
13255;SDS011;37913;48.370;10.930;2023-05-21T06:09:42;98.35;;;45.15;;
13255;SDS011;37913;48.370;10.930;2023-05-21T06:12:09;94.95;;;45.08;;
13255;SDS011;37913;48.370;10.930;2023-05-21T06:14:41;88.63;;;43.83;;
13255;SDS011;37913;48.370;10.930;2023-05-21T06:17:09;89.78;;;43.63;;
13255;SDS011;37913;48.370;10.930;2023-05-21T06:19:36;97.55;;;45.92;;
13255;SDS011;37913;48.370;10.930;2023-05-21T06:22:04;96.22;;;45.53;;
13255;SDS011;37913;48.370;10.930;2023-05-21T06:24:30;98.88;;;46.05;;
13255;SDS011;37913;48.370;10.930;2023-05-21T06:26:57;96.78;;;45.65;;
13255;SDS011;37913;48.370;10.930;2023-05-21T06:29:25;96.45;;;45.60;;
13255;SDS011;37913;48.370;10.930;2023-05-21T06:31:53;94.80;;;45.20;;
13255;SDS011;37913;48.370;10.930;2023-05-21T06:34:20;104.63;;;46.30;;
13255;SDS011;37913;48.370;10.930;2023-05-21T06:36:47;101.32;;;46.30;;
13255;SDS011;37913;48.370;10.930;2023-05-21T06:39:14;94.18;;;44.97;;
13255;SDS011;37913;48.370;10.930;2023-05-21T06:41:41;101.25;;;46.33;;
13255;SDS011;37913;48.370;10.930;2023-05-21T06:44:07;102.20;;;47.20;;
13255;SDS011;37913;48.370;10.930;2023-05-21T06:46:35;97.70;;;46.08;;
13255;SDS011;37913;48.370;10.930;2023-05-21T06:49:03;79.85;;;42.95;;
13255;SDS011;37913;48.370;10.930;2023-05-21T06:51:31;95.03;;;45.67;;
13255;SDS011;37913;48.370;10.930;2023-05-21T06:53:58;91.18;;;45.40;;
13255;SDS011;37913;48.370;10.930;2023-05-21T06:56:24;85.78;;;44.28;;
13255;SDS011;37913;48.370;10.930;2023-05-21T06:58:53;98.97;;;47.58;;
13255;SDS011;37913;48.370;10.930;2023-05-21T07:01:20;96.68;;;47.25;;
13255;SDS011;37913;48.370;10.930;2023-05-21T07:03:48;89.38;;;46.30;;
13255;SDS011;37913;48.370;10.930;2023-05-21T07:06:17;93.25;;;46.88;;
13255;SDS011;37913;48.370;10.930;2023-05-21T07:08:43;103.25;;;48.97;;
13255;SDS011;37913;48.370;10.930;2023-05-21T07:11:12;89.38;;;46.40;;
13255;SDS011;37913;48.370;10.930;2023-05-21T07:13:38;93.97;;;47.58;;
13255;SDS011;37913;48.370;10.930;2023-05-21T07:16:06;97.70;;;48.17;;
13255;SDS011;37913;48.370;10.930;2023-05-21T07:18:33;89.45;;;46.28;;
13255;SDS011;37913;48.370;10.930;2023-05-21T07:21:00;90.28;;;45.90;;
13255;SDS011;37913;48.370;10.930;2023-05-21T07:23:28;83.28;;;45.20;;
13255;SDS011;37913;48.370;10.930;2023-05-21T07:25:55;90.57;;;46.25;;
13255;SDS011;37913;48.370;10.930;2023-05-21T07:28:22;83.82;;;45.47;;
13255;SDS011;37913;48.370;10.930;2023-05-21T07:30:49;88.22;;;45.72;;
13255;SDS011;37913;48.370;10.930;2023-05-21T07:33:16;92.50;;;46.13;;
13255;SDS011;37913;48.370;10.930;2023-05-21T07:35:44;100.53;;;48.35;;
13255;SDS011;37913;48.370;10.930;2023-05-21T07:38:11;90.82;;;46.75;;
13255;SDS011;37913;48.370;10.930;2023-05-21T07:40:39;89.57;;;46.17;;
13255;SDS011;37913;48.370;10.930;2023-05-21T07:43:06;90.22;;;46.30;;
13255;SDS011;37913;48.370;10.930;2023-05-21T07:45:33;94.00;;;47.47;;
13255;SDS011;37913;48.370;10.930;2023-05-21T07:48:00;97.68;;;48.28;;
13255;SDS011;37913;48.370;10.930;2023-05-21T07:50:27;96.40;;;48.20;;
13255;SDS011;37913;48.370;10.930;2023-05-21T07:52:55;95.00;;;48.08;;
13255;SDS011;37913;48.370;10.930;2023-05-21T07:55:22;100.13;;;49.20;;
13255;SDS011;37913;48.370;10.930;2023-05-21T07:57:50;90.45;;;47.50;;
13255;SDS011;37913;48.370;10.930;2023-05-21T08:00:17;90.70;;;47.00;;
13255;SDS011;37913;48.370;10.930;2023-05-21T08:02:44;101.57;;;49.90;;
13255;SDS011;37913;48.370;10.930;2023-05-21T08:05:11;94.60;;;49.00;;
13255;SDS011;37913;48.370;10.930;2023-05-21T08:07:40;96.25;;;49.53;;
13255;SDS011;37913;48.370;10.930;2023-05-21T08:10:07;92.30;;;49.03;;
13255;SDS011;37913;48.370;10.930;2023-05-21T08:12:34;94.50;;;48.90;;
13255;SDS011;37913;48.370;10.930;2023-05-21T08:15:03;104.60;;;51.42;;
13255;SDS011;37913;48.370;10.930;2023-05-21T08:17:31;95.85;;;49.53;;
13255;SDS011;37913;48.370;10.930;2023-05-21T08:19:57;115.47;;;54.67;;
13255;SDS011;37913;48.370;10.930;2023-05-21T08:22:24;87.25;;;48.97;;
13255;SDS011;37913;48.370;10.930;2023-05-21T08:24:51;110.13;;;52.63;;
13255;SDS011;37913;48.370;10.930;2023-05-21T08:27:18;92.35;;;49.65;;
13255;SDS011;37913;48.370;10.930;2023-05-21T08:29:45;93.70;;;49.08;;
13255;SDS011;37913;48.370;10.930;2023-05-21T08:32:13;87.72;;;48.33;;
13255;SDS011;37913;48.370;10.930;2023-05-21T08:34:40;92.95;;;50.10;;
13255;SDS011;37913;48.370;10.930;2023-05-21T08:37:07;93.28;;;49.17;;
13255;SDS011;37913;48.370;10.930;2023-05-21T08:39:34;86.80;;;48.72;;
13255;SDS011;37913;48.370;10.930;2023-05-21T08:42:03;88.10;;;50.15;;
13255;SDS011;37913;48.370;10.930;2023-05-21T08:44:41;99.80;;;53.03;;
13255;SDS011;37913;48.370;10.930;2023-05-21T08:47:11;93.90;;;53.08;;
13255;SDS011;37913;48.370;10.930;2023-05-21T08:49:44;97.53;;;53.70;;
13255;SDS011;37913;48.370;10.930;2023-05-21T08:52:13;91.32;;;54.17;;
13255;SDS011;37913;48.370;10.930;2023-05-21T08:54:40;87.68;;;54.53;;
13255;SDS011;37913;48.370;10.930;2023-05-21T08:57:09;103.95;;;59.15;;
13255;SDS011;37913;48.370;10.930;2023-05-21T08:59:37;102.13;;;60.53;;
13255;SDS011;37913;48.370;10.930;2023-05-21T09:02:08;120.88;;;67.43;;
13255;SDS011;37913;48.370;10.930;2023-05-21T09:04:39;107.90;;;63.92;;
13255;SDS011;37913;48.370;10.930;2023-05-21T09:07:06;101.50;;;61.85;;
13255;SDS011;37913;48.370;10.930;2023-05-21T09:09:37;98.88;;;63.00;;
13255;SDS011;37913;48.370;10.930;2023-05-21T09:12:07;104.32;;;66.20;;
13255;SDS011;37913;48.370;10.930;2023-05-21T09:14:34;110.55;;;73.93;;
13255;SDS011;37913;48.370;10.930;2023-05-21T09:17:03;104.70;;;73.68;;
13255;SDS011;37913;48.370;10.930;2023-05-21T09:19:30;100.53;;;70.70;;
13255;SDS011;37913;48.370;10.930;2023-05-21T09:22:01;111.05;;;74.13;;
13255;SDS011;37913;48.370;10.930;2023-05-21T09:24:29;106.47;;;75.63;;
13255;SDS011;37913;48.370;10.930;2023-05-21T09:26:56;105.30;;;80.43;;
13255;SDS011;37913;48.370;10.930;2023-05-21T09:29:23;104.45;;;81.88;;
13255;SDS011;37913;48.370;10.930;2023-05-21T09:31:51;104.38;;;79.88;;
13255;SDS011;37913;48.370;10.930;2023-05-21T09:34:19;102.72;;;81.30;;
13255;SDS011;37913;48.370;10.930;2023-05-21T09:36:47;117.53;;;85.85;;
13255;SDS011;37913;48.370;10.930;2023-05-21T09:39:27;113.93;;;85.15;;
13255;SDS011;37913;48.370;10.930;2023-05-21T09:41:55;105.68;;;91.53;;
13255;SDS011;37913;48.370;10.930;2023-05-21T09:44:22;95.70;;;85.13;;
13255;SDS011;37913;48.370;10.930;2023-05-21T09:46:49;97.13;;;86.50;;
13255;SDS011;37913;48.370;10.930;2023-05-21T09:49:21;103.50;;;91.55;;
13255;SDS011;37913;48.370;10.930;2023-05-21T09:51:53;118.15;;;96.63;;
13255;SDS011;37913;48.370;10.930;2023-05-21T09:54:21;116.07;;;95.45;;
13255;SDS011;37913;48.370;10.930;2023-05-21T09:56:49;106.38;;;91.93;;
13255;SDS011;37913;48.370;10.930;2023-05-21T09:59:17;102.82;;;89.05;;
13255;SDS011;37913;48.370;10.930;2023-05-21T10:01:45;105.65;;;91.90;;
13255;SDS011;37913;48.370;10.930;2023-05-21T10:04:12;114.88;;;100.68;;
13255;SDS011;37913;48.370;10.930;2023-05-21T10:06:41;112.80;;;101.03;;
13255;SDS011;37913;48.370;10.930;2023-05-21T10:09:09;117.60;;;104.00;;
13255;SDS011;37913;48.370;10.930;2023-05-21T10:11:36;108.93;;;95.93;;
13255;SDS011;37913;48.370;10.930;2023-05-21T10:14:10;116.75;;;96.82;;
13255;SDS011;37913;48.370;10.930;2023-05-21T10:16:41;118.18;;;96.75;;
13255;SDS011;37913;48.370;10.930;2023-05-21T10:19:10;115.65;;;91.95;;
13255;SDS011;37913;48.370;10.930;2023-05-21T10:21:38;113.72;;;91.45;;
13255;SDS011;37913;48.370;10.930;2023-05-21T10:24:06;107.70;;;85.20;;
13255;SDS011;37913;48.370;10.930;2023-05-21T10:26:34;116.75;;;87.10;;
13255;SDS011;37913;48.370;10.930;2023-05-21T10:29:02;107.15;;;83.40;;
13255;SDS011;37913;48.370;10.930;2023-05-21T10:31:30;105.00;;;76.05;;
13255;SDS011;37913;48.370;10.930;2023-05-21T10:33:57;111.63;;;79.30;;
13255;SDS011;37913;48.370;10.930;2023-05-21T10:36:26;106.35;;;79.40;;
13255;SDS011;37913;48.370;10.930;2023-05-21T10:38:56;112.43;;;80.75;;
13255;SDS011;37913;48.370;10.930;2023-05-21T10:41:25;107.63;;;76.05;;
13255;SDS011;37913;48.370;10.930;2023-05-21T10:44:01;99.30;;;73.13;;
13255;SDS011;37913;48.370;10.930;2023-05-21T10:49:45;100.20;;;74.07;;
13255;SDS011;37913;48.370;10.930;2023-05-21T10:52:23;122.72;;;82.65;;
13255;SDS011;37913;48.370;10.930;2023-05-21T10:55:10;103.95;;;72.65;;
13255;SDS011;37913;48.370;10.930;2023-05-21T10:57:58;113.15;;;81.03;;
13255;SDS011;37913;48.370;10.930;2023-05-21T11:00:43;105.47;;;76.13;;
13255;SDS011;37913;48.370;10.930;2023-05-21T11:03:12;116.15;;;77.88;;
13255;SDS011;37913;48.370;10.930;2023-05-21T11:05:50;104.88;;;74.38;;
13255;SDS011;37913;48.370;10.930;2023-05-21T11:08:21;102.10;;;70.80;;
13255;SDS011;37913;48.370;10.930;2023-05-21T11:10:52;102.05;;;71.25;;
13255;SDS011;37913;48.370;10.930;2023-05-21T11:13:22;103.22;;;71.07;;
13255;SDS011;37913;48.370;10.930;2023-05-21T11:16:03;112.60;;;73.65;;
13255;SDS011;37913;48.370;10.930;2023-05-21T11:21:30;113.35;;;80.15;;
13255;SDS011;37913;48.370;10.930;2023-05-21T11:24:01;105.45;;;83.25;;
13255;SDS011;37913;48.370;10.930;2023-05-21T11:29:30;99.38;;;82.22;;
13255;SDS011;37913;48.370;10.930;2023-05-21T11:32:05;113.30;;;87.63;;
13255;SDS011;37913;48.370;10.930;2023-05-21T11:34:36;105.22;;;86.80;;
13255;SDS011;37913;48.370;10.930;2023-05-21T11:37:21;105.45;;;90.30;;
13255;SDS011;37913;48.370;10.930;2023-05-21T11:39:51;112.50;;;95.25;;
13255;SDS011;37913;48.370;10.930;2023-05-21T11:42:31;106.90;;;95.57;;
13255;SDS011;37913;48.370;10.930;2023-05-21T11:45:00;124.30;;;95.68;;
13255;SDS011;37913;48.370;10.930;2023-05-21T11:47:28;101.15;;;88.72;;
13255;SDS011;37913;48.370;10.930;2023-05-21T11:49:57;107.22;;;94.22;;
13255;SDS011;37913;48.370;10.930;2023-05-21T11:52:27;104.22;;;90.40;;
13255;SDS011;37913;48.370;10.930;2023-05-21T11:54:54;123.40;;;85.47;;
13255;SDS011;37913;48.370;10.930;2023-05-21T11:57:23;101.97;;;80.18;;
13255;SDS011;37913;48.370;10.930;2023-05-21T11:59:54;111.82;;;78.75;;
13255;SDS011;37913;48.370;10.930;2023-05-21T12:02:24;99.70;;;75.07;;
13255;SDS011;37913;48.370;10.930;2023-05-21T12:04:52;116.57;;;77.90;;
13255;SDS011;37913;48.370;10.930;2023-05-21T12:07:21;106.47;;;76.13;;
13255;SDS011;37913;48.370;10.930;2023-05-21T12:09:48;121.32;;;77.80;;
13255;SDS011;37913;48.370;10.930;2023-05-21T12:12:17;107.88;;;76.00;;
13255;SDS011;37913;48.370;10.930;2023-05-21T12:14:45;123.57;;;79.43;;
13255;SDS011;37913;48.370;10.930;2023-05-21T12:17:14;121.20;;;80.13;;
13255;SDS011;37913;48.370;10.930;2023-05-21T12:19:42;114.38;;;78.40;;
13255;SDS011;37913;48.370;10.930;2023-05-21T12:22:10;116.20;;;78.50;;
13255;SDS011;37913;48.370;10.930;2023-05-21T12:24:38;111.15;;;75.88;;
13255;SDS011;37913;48.370;10.930;2023-05-21T12:27:07;110.85;;;77.35;;
13255;SDS011;37913;48.370;10.930;2023-05-21T12:29:37;106.22;;;76.25;;
13255;SDS011;37913;48.370;10.930;2023-05-21T12:32:07;99.20;;;74.43;;
13255;SDS011;37913;48.370;10.930;2023-05-21T12:34:39;97.70;;;74.95;;
13255;SDS011;37913;48.370;10.930;2023-05-21T12:37:09;108.38;;;76.97;;
13255;SDS011;37913;48.370;10.930;2023-05-21T12:39:39;109.60;;;76.53;;
13255;SDS011;37913;48.370;10.930;2023-05-21T12:42:06;106.53;;;76.63;;
13255;SDS011;37913;48.370;10.930;2023-05-21T12:44:34;112.00;;;79.63;;
13255;SDS011;37913;48.370;10.930;2023-05-21T12:47:01;102.28;;;74.03;;
13255;SDS011;37913;48.370;10.930;2023-05-21T12:49:35;104.53;;;77.30;;
13255;SDS011;37913;48.370;10.930;2023-05-21T12:52:04;108.78;;;78.95;;
13255;SDS011;37913;48.370;10.930;2023-05-21T12:54:35;104.88;;;78.72;;
13255;SDS011;37913;48.370;10.930;2023-05-21T12:57:14;102.90;;;80.93;;
13255;SDS011;37913;48.370;10.930;2023-05-21T12:59:43;113.60;;;86.80;;
13255;SDS011;37913;48.370;10.930;2023-05-21T13:02:15;102.68;;;81.93;;
13255;SDS011;37913;48.370;10.930;2023-05-21T13:04:44;109.18;;;83.65;;
13255;SDS011;37913;48.370;10.930;2023-05-21T13:07:11;94.28;;;81.80;;
13255;SDS011;37913;48.370;10.930;2023-05-21T13:09:38;95.90;;;85.30;;
13255;SDS011;37913;48.370;10.930;2023-05-21T13:12:05;108.60;;;88.35;;
13255;SDS011;37913;48.370;10.930;2023-05-21T13:14:34;121.68;;;94.00;;
13255;SDS011;37913;48.370;10.930;2023-05-21T13:17:00;99.97;;;89.35;;
13255;SDS011;37913;48.370;10.930;2023-05-21T13:19:27;106.20;;;92.55;;
13255;SDS011;37913;48.370;10.930;2023-05-21T13:21:54;107.90;;;92.70;;
13255;SDS011;37913;48.370;10.930;2023-05-21T13:24:21;103.65;;;92.15;;
13255;SDS011;37913;48.370;10.930;2023-05-21T13:26:48;104.97;;;91.80;;
13255;SDS011;37913;48.370;10.930;2023-05-21T13:29:15;115.55;;;96.22;;
13255;SDS011;37913;48.370;10.930;2023-05-21T13:31:43;106.78;;;90.10;;
13255;SDS011;37913;48.370;10.930;2023-05-21T13:34:11;99.13;;;87.20;;
13255;SDS011;37913;48.370;10.930;2023-05-21T13:36:38;113.13;;;93.30;;
13255;SDS011;37913;48.370;10.930;2023-05-21T13:39:05;104.32;;;88.82;;
13255;SDS011;37913;48.370;10.930;2023-05-21T13:41:32;101.22;;;85.80;;
13255;SDS011;37913;48.370;10.930;2023-05-21T13:43:59;102.50;;;84.57;;
13255;SDS011;37913;48.370;10.930;2023-05-21T13:46:26;109.75;;;84.20;;
13255;SDS011;37913;48.370;10.930;2023-05-21T13:48:54;104.35;;;81.70;;
13255;SDS011;37913;48.370;10.930;2023-05-21T13:51:21;112.40;;;83.53;;
13255;SDS011;37913;48.370;10.930;2023-05-21T13:53:48;109.50;;;79.40;;
13255;SDS011;37913;48.370;10.930;2023-05-21T13:56:15;108.60;;;74.32;;
13255;SDS011;37913;48.370;10.930;2023-05-21T13:58:42;97.38;;;70.20;;
13255;SDS011;37913;48.370;10.930;2023-05-21T14:01:10;111.97;;;71.53;;
13255;SDS011;37913;48.370;10.930;2023-05-21T14:03:37;111.82;;;71.55;;
13255;SDS011;37913;48.370;10.930;2023-05-21T14:06:05;100.38;;;67.90;;
13255;SDS011;37913;48.370;10.930;2023-05-21T14:08:32;106.57;;;69.30;;
13255;SDS011;37913;48.370;10.930;2023-05-21T14:10:59;93.45;;;64.90;;
13255;SDS011;37913;48.370;10.930;2023-05-21T14:13:27;102.65;;;65.82;;
13255;SDS011;37913;48.370;10.930;2023-05-21T14:15:53;106.75;;;65.95;;